Flight NumberIRM1095 Date10.02.2018
Departure AirportOIII Arrival AirportOIKB
Departure Time9.56Arrival Time11.20
Pilot In CommandMohammadSadegh Ghanaat Block Time1.40 Hours
Pilot Rating100 % AircraftEP-MND [ 747-300 ]


Distance571.00 Nm. Passengers460
Fuel Used16,785 Kg. Cargo18830 Kg
Expense Details Income Details
Fuel Cost5,242 v$Ticket Sales52,900 v$
Pilot Salary2,602 v$ Cargo income24,716.00 v$
Crew Salary2,300 v$ Bonus14,459 v$
Gross Profit84,154 v$ ( 84,154 v$ )

Client Versionv2.2.0.rc2 Max Simrate1
Flight Critique Pilot CommentsOIKB 101000Z 21012KT 4000 HZ SCT030 24/13 Q1011 A2986 NOSIG //ASMU1X //VOR 21L

[ Back ]
FSA VA Integration Pack
Copyright © 2010 FSAirlines.net. Version : 0.1.1